createdAt,value
2018-06-29T00:01:32.274Z,18.30
2018-06-29T00:03:59.872Z,18.60
2018-06-29T00:06:27.552Z,18.10
2018-06-29T00:08:55.107Z,18.20
2018-06-29T00:11:22.720Z,18.30
2018-06-29T00:13:50.233Z,18.40
2018-06-29T00:16:17.808Z,18.50
2018-06-29T00:18:45.353Z,18.50
2018-06-29T00:23:40.388Z,18.30
2018-06-29T00:26:07.901Z,18.00
2018-06-29T00:31:02.986Z,17.70
2018-06-29T00:33:30.553Z,17.40
2018-06-29T00:35:58.073Z,17.30
2018-06-29T00:38:25.629Z,17.60
2018-06-29T00:40:53.161Z,17.40
2018-06-29T00:45:48.213Z,18.20
2018-06-29T00:48:15.777Z,18.00
2018-06-29T00:50:43.280Z,17.90
2018-06-29T00:53:10.857Z,18.10
2018-06-29T00:58:05.958Z,18.00
2018-06-29T01:00:33.576Z,18.40
2018-06-29T01:03:01.666Z,17.70
2018-06-29T01:05:29.242Z,17.70
2018-06-29T01:07:56.801Z,17.50
2018-06-29T01:10:24.353Z,18.20
2018-06-29T01:12:51.853Z,18.30
2018-06-29T01:15:19.420Z,18.30
2018-06-29T01:17:46.989Z,17.90
2018-06-29T01:20:14.613Z,17.80
2018-06-29T01:22:42.304Z,17.50
2018-06-29T01:25:09.810Z,17.40
2018-06-29T01:27:37.399Z,17.90
2018-06-29T01:30:05.009Z,17.70
2018-06-29T01:32:32.520Z,17.40
2018-06-29T01:35:00.093Z,17.30
2018-06-29T01:37:27.689Z,17.60
2018-06-29T01:39:55.229Z,17.70
2018-06-29T01:42:22.736Z,17.70
2018-06-29T01:44:50.285Z,17.50
2018-06-29T01:47:17.897Z,17.40
2018-06-29T01:49:45.441Z,17.50
2018-06-29T01:52:13.052Z,17.50
2018-06-29T01:54:40.525Z,17.50
2018-06-29T01:57:08.130Z,17.50
2018-06-29T01:59:35.661Z,17.60
2018-06-29T02:02:03.762Z,17.50
2018-06-29T02:04:31.497Z,17.50
2018-06-29T02:06:59.123Z,17.50
2018-06-29T02:09:26.672Z,17.40
2018-06-29T02:11:54.227Z,17.50
2018-06-29T02:14:21.764Z,17.00
2018-06-29T02:16:49.329Z,16.70
2018-06-29T02:19:17.056Z,16.90
2018-06-29T02:24:12.236Z,17.00
2018-06-29T02:26:39.770Z,17.10
2018-06-29T02:29:07.290Z,17.20
2018-06-29T02:31:34.834Z,17.20
2018-06-29T02:34:02.424Z,17.00
2018-06-29T02:36:30.261Z,16.90
2018-06-29T02:38:57.777Z,16.80
2018-06-29T02:41:25.279Z,16.70
2018-06-29T02:48:48.245Z,16.50
2018-06-29T02:51:15.753Z,16.50
2018-06-29T02:53:43.391Z,16.40
2018-06-29T02:58:38.556Z,16.60
2018-06-29T03:01:06.201Z,16.50
2018-06-29T03:03:33.776Z,16.60
2018-06-29T03:06:01.368Z,16.70
2018-06-29T03:08:28.929Z,16.90
2018-06-29T03:10:56.538Z,16.90
2018-06-29T03:13:24.059Z,16.80
2018-06-29T03:15:51.643Z,16.50
2018-06-29T03:18:19.157Z,16.20
2018-06-29T03:20:46.814Z,15.80
2018-06-29T03:23:14.532Z,15.90
2018-06-29T03:25:42.071Z,16.10
2018-06-29T03:28:09.628Z,16.40
2018-06-29T03:33:04.840Z,16.10
2018-06-29T03:35:32.409Z,16.00
2018-06-29T03:40:27.662Z,16.40
2018-06-29T03:42:55.374Z,16.50
2018-06-29T03:47:50.386Z,16.80
2018-06-29T03:50:17.958Z,16.90
2018-06-29T03:55:12.994Z,16.50
2018-06-29T03:57:40.544Z,16.60
2018-06-29T04:00:08.639Z,16.60
2018-06-29T04:02:36.618Z,16.60
2018-06-29T04:05:04.190Z,16.80
2018-06-29T04:07:31.727Z,17.00
2018-06-29T04:09:59.254Z,17.00
2018-06-29T04:12:26.843Z,16.90
2018-06-29T04:14:54.385Z,17.00
2018-06-29T04:17:21.961Z,17.50
2018-06-29T04:19:49.626Z,17.60
2018-06-29T04:22:17.188Z,17.90
2018-06-29T04:24:44.720Z,18.00
2018-06-29T04:27:12.405Z,18.10
2018-06-29T04:29:39.945Z,18.00
2018-06-29T04:32:07.534Z,18.00
2018-06-29T04:34:35.078Z,18.00
2018-06-29T04:37:02.648Z,18.00
2018-06-29T04:39:30.147Z,17.80
2018-06-29T04:41:58.030Z,18.00
2018-06-29T04:46:53.180Z,18.00
2018-06-29T04:49:21.106Z,17.80
2018-06-29T04:51:48.707Z,17.90
2018-06-29T04:54:16.333Z,18.00
2018-06-29T04:59:11.409Z,18.10
2018-06-29T05:01:39.080Z,18.20
2018-06-29T05:04:06.644Z,18.40
2018-06-29T05:06:34.197Z,18.50
2018-06-29T05:09:01.702Z,18.10
2018-06-29T05:11:29.341Z,18.00
2018-06-29T05:13:56.912Z,17.60
2018-06-29T05:18:52.080Z,18.30
2018-06-29T05:21:19.585Z,18.40
2018-06-29T05:26:14.705Z,18.10
2018-06-29T05:31:09.776Z,18.50
2018-06-29T05:33:37.311Z,18.70
2018-06-29T05:36:04.863Z,18.60
2018-06-29T05:38:32.388Z,18.60
2018-06-29T05:41:00.025Z,18.40
2018-06-29T05:43:27.594Z,18.30
2018-06-29T05:45:55.166Z,18.40
2018-06-29T05:48:22.733Z,18.60
2018-06-29T05:53:17.784Z,18.70
2018-06-29T05:55:45.547Z,18.70
2018-06-29T05:58:13.041Z,19.10
2018-06-29T06:00:40.673Z,19.40
2018-06-29T06:03:08.328Z,19.30
2018-06-29T06:05:35.884Z,19.30
2018-06-29T06:08:03.574Z,19.60
2018-06-29T06:10:31.173Z,19.70
2018-06-29T06:12:58.677Z,19.50
2018-06-29T06:15:26.175Z,19.50
2018-06-29T06:17:53.782Z,19.50
2018-06-29T06:20:21.341Z,19.60
2018-06-29T06:22:48.897Z,19.80
2018-06-29T06:25:16.403Z,19.70
2018-06-29T06:27:44.046Z,19.70
2018-06-29T06:30:11.592Z,20.00
2018-06-29T06:32:39.144Z,20.10
2018-06-29T06:35:06.710Z,20.20
2018-06-29T06:37:34.321Z,20.10
2018-06-29T06:40:01.837Z,20.10
2018-06-29T06:42:29.393Z,20.40
2018-06-29T06:44:57.034Z,20.10
2018-06-29T06:47:24.581Z,20.30
2018-06-29T06:49:52.231Z,20.40
2018-06-29T06:52:19.776Z,20.70
2018-06-29T06:57:14.986Z,20.80
2018-06-29T06:59:42.488Z,20.90
2018-06-29T07:02:10.032Z,21.00
2018-06-29T07:04:37.813Z,21.00
2018-06-29T07:07:05.354Z,21.10
2018-06-29T07:09:32.899Z,21.20
2018-06-29T07:14:28.148Z,21.20
2018-06-29T07:16:55.686Z,21.20
2018-06-29T07:24:18.256Z,21.30
2018-06-29T07:29:13.398Z,21.40
2018-06-29T07:31:40.973Z,21.40
2018-06-29T07:34:08.544Z,21.40
2018-06-29T07:36:36.079Z,21.50
2018-06-29T07:39:06.153Z,21.70
2018-06-29T07:41:33.729Z,21.80
2018-06-29T07:46:28.756Z,21.80
2018-06-29T07:48:56.228Z,21.90
2018-06-29T07:51:23.786Z,21.80
2018-06-29T07:53:51.337Z,21.80
2018-06-29T07:56:19.003Z,21.90
2018-06-29T08:01:14.124Z,21.70
2018-06-29T08:03:41.673Z,21.80
2018-06-29T08:06:09.222Z,21.90
2018-06-29T08:08:36.714Z,21.90
2018-06-29T08:11:04.353Z,21.90
2018-06-29T08:13:31.867Z,21.80
2018-06-29T08:15:59.479Z,21.70
2018-06-29T08:18:27.035Z,21.90
2018-06-29T08:20:54.653Z,22.10
2018-06-29T08:23:28.754Z,22.10
2018-06-29T08:26:06.601Z,22.00
2018-06-29T08:28:34.128Z,22.00
2018-06-29T08:31:01.749Z,21.90
2018-06-29T08:33:29.386Z,21.90
2018-06-29T08:35:56.884Z,21.80
2018-06-29T08:38:24.449Z,22.00
2018-06-29T08:40:51.975Z,22.10
2018-06-29T08:43:19.622Z,22.10
2018-06-29T08:45:47.198Z,22.10
2018-06-29T08:48:14.771Z,22.00
2018-06-29T08:50:42.363Z,22.30
2018-06-29T08:53:09.917Z,22.50
2018-06-29T08:55:37.434Z,22.50
2018-06-29T08:58:05.023Z,22.60
2018-06-29T09:00:32.597Z,22.50
2018-06-29T09:03:00.102Z,22.50
2018-06-29T09:05:27.616Z,22.60
2018-06-29T09:07:55.235Z,22.60
2018-06-29T09:10:22.739Z,22.60
2018-06-29T09:15:17.804Z,22.50
2018-06-29T09:17:45.309Z,22.60
2018-06-29T09:20:12.904Z,22.60
2018-06-29T09:22:40.407Z,22.60
2018-06-29T09:25:08.013Z,22.70
2018-06-29T09:27:35.580Z,23.00
2018-06-29T09:30:03.885Z,23.00
2018-06-29T09:32:31.421Z,23.10
2018-06-29T09:34:59.833Z,23.10
2018-06-29T09:37:27.442Z,23.20
2018-06-29T09:39:55.011Z,23.20
2018-06-29T09:42:22.590Z,23.30
2018-06-29T09:44:50.233Z,23.30
2018-06-29T09:47:17.825Z,23.20
2018-06-29T09:49:45.453Z,23.30
2018-06-29T09:52:12.968Z,23.50
2018-06-29T09:54:40.570Z,23.50
2018-06-29T09:57:08.247Z,23.50
2018-06-29T09:59:35.894Z,23.50
2018-06-29T10:02:03.458Z,23.40
2018-06-29T10:04:31.021Z,23.70
2018-06-29T10:06:58.517Z,23.80
2018-06-29T10:09:27.420Z,23.80
2018-06-29T10:11:55.023Z,23.70
2018-06-29T10:14:22.599Z,23.60
2018-06-29T10:16:50.417Z,23.70
2018-06-29T10:19:17.940Z,23.70
2018-06-29T10:21:45.515Z,23.80
2018-06-29T10:24:13.072Z,23.70
2018-06-29T10:26:40.614Z,23.40
2018-06-29T10:29:08.292Z,23.30
2018-06-29T10:31:35.851Z,23.20
2018-06-29T10:34:03.438Z,23.00
2018-06-29T10:38:58.577Z,23.30
2018-06-29T10:41:26.179Z,23.40
2018-06-29T10:43:53.683Z,23.30
2018-06-29T10:46:21.273Z,23.30
2018-06-29T10:48:48.780Z,23.40
2018-06-29T10:53:43.893Z,23.40
2018-06-29T10:56:11.462Z,23.30
2018-06-29T11:03:34.166Z,23.00
2018-06-29T11:06:01.728Z,22.80
2018-06-29T11:08:29.282Z,22.80
2018-06-29T11:10:57.068Z,22.90
2018-06-29T11:13:24.622Z,22.90
2018-06-29T11:15:52.178Z,23.00
2018-06-29T11:18:19.723Z,23.00
2018-06-29T11:20:47.267Z,23.10
2018-06-29T11:23:14.794Z,23.20
2018-06-29T11:25:42.354Z,23.10
2018-06-29T11:28:09.871Z,23.20
2018-06-29T11:30:37.434Z,23.10
2018-06-29T11:33:04.999Z,23.10
2018-06-29T11:35:32.553Z,23.30
2018-06-29T11:38:00.129Z,23.30
2018-06-29T11:40:28.221Z,23.10
2018-06-29T11:42:55.746Z,23.10
2018-06-29T11:45:23.303Z,22.90
2018-06-29T11:47:50.878Z,22.80
2018-06-29T11:50:18.382Z,23.00
2018-06-29T11:52:45.934Z,23.10
2018-06-29T11:57:40.992Z,23.20
2018-06-29T12:00:08.840Z,23.20
2018-06-29T12:02:36.429Z,23.00
2018-06-29T12:05:04.069Z,22.90
2018-06-29T12:07:31.684Z,23.10
2018-06-29T12:12:26.722Z,23.50
2018-06-29T12:14:54.364Z,23.40
2018-06-29T12:17:21.896Z,23.50
2018-06-29T12:19:49.412Z,23.50
2018-06-29T12:22:16.904Z,23.50
2018-06-29T12:24:44.463Z,23.30
2018-06-29T12:27:11.955Z,23.30
2018-06-29T12:32:07.046Z,23.50
2018-06-29T12:34:34.614Z,23.40
2018-06-29T12:37:02.116Z,23.30
2018-06-29T12:39:29.679Z,23.30
2018-06-29T12:41:57.545Z,23.30
2018-06-29T12:44:25.085Z,23.30
2018-06-29T12:49:20.133Z,23.70
2018-06-29T12:51:47.884Z,23.90
2018-06-29T12:54:15.417Z,23.80
2018-06-29T12:56:42.970Z,23.90
2018-06-29T13:01:38.059Z,23.90
2018-06-29T13:04:05.599Z,23.90
2018-06-29T13:06:33.134Z,24.10
2018-06-29T13:09:00.749Z,23.90
2018-06-29T13:11:28.321Z,24.20
2018-06-29T13:13:55.831Z,24.10
2018-06-29T13:16:23.385Z,24.10
2018-06-29T13:18:50.923Z,24.00
2018-06-29T13:21:18.504Z,24.00
2018-06-29T13:23:46.151Z,23.90
2018-06-29T13:26:13.657Z,24.10
2018-06-29T13:28:41.213Z,24.30
2018-06-29T13:31:08.744Z,24.30
2018-06-29T13:33:36.313Z,24.10
2018-06-29T13:36:04.011Z,24.00
2018-06-29T13:38:31.506Z,24.20
2018-06-29T13:40:59.105Z,24.20
2018-06-29T13:43:26.605Z,24.10
2018-06-29T13:45:54.182Z,24.10
2018-06-29T13:48:21.686Z,24.10
2018-06-29T13:50:49.193Z,24.30
2018-06-29T13:53:16.740Z,24.30
2018-06-29T13:55:44.311Z,24.40
2018-06-29T13:58:11.869Z,24.60
2018-06-29T14:00:39.540Z,24.80
2018-06-29T14:03:07.155Z,25.00
2018-06-29T14:08:09.858Z,25.00
2018-06-29T14:13:05.027Z,25.50
2018-06-29T14:15:32.606Z,25.80
2018-06-29T14:18:00.166Z,25.90
2018-06-29T14:20:27.726Z,26.00
2018-06-29T14:22:55.289Z,25.90
2018-06-29T14:25:22.901Z,26.00
2018-06-29T14:27:50.429Z,26.00
2018-06-29T14:30:18.020Z,26.10
2018-06-29T14:32:45.572Z,26.60
2018-06-29T14:35:13.137Z,26.60
2018-06-29T14:37:40.634Z,26.60
2018-06-29T14:40:08.208Z,26.80
2018-06-29T14:42:35.774Z,26.90
2018-06-29T14:45:03.378Z,27.30
2018-06-29T14:47:31.034Z,27.10
2018-06-29T14:49:58.644Z,27.00
2018-06-29T14:52:26.176Z,27.10
2018-06-29T14:54:53.919Z,27.50
2018-06-29T14:57:21.505Z,27.30
2018-06-29T14:59:49.055Z,27.70
2018-06-29T15:02:16.621Z,27.90
2018-06-29T15:04:44.130Z,27.80
2018-06-29T15:09:39.310Z,26.70
2018-06-29T15:12:06.930Z,27.10
2018-06-29T15:14:34.530Z,27.40
2018-06-29T15:17:02.076Z,27.60
2018-06-29T15:19:29.622Z,28.60
2018-06-29T15:21:57.153Z,29.10
2018-06-29T15:24:24.740Z,29.00
2018-06-29T15:26:52.272Z,29.40
2018-06-29T15:29:19.802Z,29.20
2018-06-29T15:31:47.344Z,29.80
2018-06-29T15:34:14.948Z,30.50
2018-06-29T15:36:42.453Z,30.90
2018-06-29T15:39:11.738Z,31.30
2018-06-29T15:41:39.674Z,30.70
2018-06-29T15:44:07.243Z,30.40
2018-06-29T15:46:34.958Z,31.00
2018-06-29T15:49:02.481Z,31.80
2018-06-29T15:51:30.129Z,32.40
2018-06-29T15:53:57.669Z,32.50
2018-06-29T15:56:25.222Z,31.90
2018-06-29T16:01:20.597Z,31.90
2018-06-29T16:06:15.894Z,32.00
2018-06-29T16:08:43.476Z,32.20
2018-06-29T16:11:10.991Z,31.90
2018-06-29T16:13:38.565Z,31.80
2018-06-29T16:16:06.144Z,31.90
2018-06-29T16:18:33.703Z,32.40
2018-06-29T16:21:01.343Z,32.20
2018-06-29T16:23:28.882Z,32.50
2018-06-29T16:28:24.122Z,33.80
2018-06-29T16:30:51.684Z,33.40
2018-06-29T16:33:19.349Z,33.10
2018-06-29T16:35:46.910Z,33.10
2018-06-29T16:38:14.426Z,33.30
2018-06-29T16:43:09.470Z,33.50
2018-06-29T16:45:37.135Z,32.70
2018-06-29T16:48:05.100Z,31.40
2018-06-29T16:50:32.696Z,30.90
2018-06-29T16:53:00.228Z,29.60
2018-06-29T16:55:27.881Z,29.20
2018-06-29T16:57:55.537Z,29.90
2018-06-29T17:00:23.109Z,30.00
2018-06-29T17:02:50.665Z,28.90
2018-06-29T17:05:18.231Z,30.20
2018-06-29T17:07:45.789Z,31.20
2018-06-29T17:10:13.345Z,32.50
2018-06-29T17:12:40.891Z,32.70
2018-06-29T17:15:08.801Z,32.30
2018-06-29T17:17:36.385Z,32.30
2018-06-29T17:20:03.978Z,31.70
2018-06-29T17:22:31.553Z,30.70
2018-06-29T17:24:59.117Z,30.10
2018-06-29T17:27:26.759Z,29.90
2018-06-29T17:29:54.420Z,30.90
2018-06-29T17:32:21.968Z,31.90
2018-06-29T17:34:49.537Z,31.90
2018-06-29T17:37:17.094Z,32.30
2018-06-29T17:39:44.673Z,32.80
2018-06-29T17:42:12.248Z,33.20
2018-06-29T17:44:39.795Z,32.50
2018-06-29T17:47:07.314Z,31.80
2018-06-29T17:49:34.985Z,31.30
2018-06-29T17:52:02.594Z,30.10
2018-06-29T17:54:30.143Z,29.40
2018-06-29T17:56:57.715Z,29.20
2018-06-29T17:59:25.280Z,29.50
2018-06-29T18:01:52.841Z,30.20
2018-06-29T18:04:20.427Z,30.20
2018-06-29T18:09:15.665Z,30.20
2018-06-29T18:11:43.181Z,29.70
2018-06-29T18:14:10.878Z,30.10
2018-06-29T18:16:38.419Z,29.90
2018-06-29T18:21:33.502Z,29.60
2018-06-29T18:24:01.171Z,29.40
2018-06-29T18:26:28.709Z,30.00
2018-06-29T18:28:56.274Z,29.70
2018-06-29T18:31:23.990Z,29.10
2018-06-29T18:33:51.497Z,28.50
2018-06-29T18:36:19.009Z,28.50
2018-06-29T18:38:46.742Z,27.60
2018-06-29T18:41:14.306Z,28.60
2018-06-29T18:43:41.818Z,28.70
2018-06-29T18:46:09.734Z,28.10
2018-06-29T18:51:04.906Z,27.10
2018-06-29T18:53:32.461Z,26.90
2018-06-29T18:56:00.007Z,26.90
2018-06-29T18:58:34.405Z,27.00
2018-06-29T19:01:01.945Z,27.10
2018-06-29T19:03:29.602Z,27.60
2018-06-29T19:05:57.201Z,27.20
2018-06-29T19:08:24.755Z,26.40
2018-06-29T19:10:52.311Z,26.00
2018-06-29T19:13:20.014Z,25.60
2018-06-29T19:15:47.641Z,25.70
2018-06-29T19:18:15.211Z,25.20
2018-06-29T19:20:42.818Z,25.20
2018-06-29T19:23:10.333Z,25.00
2018-06-29T19:25:37.838Z,24.60
2018-06-29T19:30:32.958Z,24.40
2018-06-29T19:33:00.577Z,24.20
2018-06-29T19:35:28.090Z,24.10
2018-06-29T19:37:55.660Z,23.80
2018-06-29T19:40:23.159Z,23.30
2018-06-29T19:42:50.842Z,23.20
2018-06-29T19:45:18.423Z,22.80
2018-06-29T19:47:46.013Z,23.20
2018-06-29T19:50:13.646Z,23.10
2018-06-29T19:52:41.156Z,22.70
2018-06-29T19:55:08.693Z,22.90
2018-06-29T19:57:36.211Z,22.60
2018-06-29T20:00:04.767Z,22.30
2018-06-29T20:02:32.358Z,22.40
2018-06-29T20:04:59.941Z,22.50
2018-06-29T20:07:27.562Z,22.40
2018-06-29T20:09:55.169Z,22.50
2018-06-29T20:12:22.693Z,22.40
2018-06-29T20:14:50.390Z,22.50
2018-06-29T20:17:17.962Z,22.20
2018-06-29T20:19:45.862Z,22.00
2018-06-29T20:22:13.394Z,22.20
2018-06-29T20:24:41.033Z,22.10
2018-06-29T20:27:08.602Z,22.20
2018-06-29T20:29:40.021Z,22.20
2018-06-29T20:32:07.551Z,22.20
2018-06-29T20:34:35.264Z,22.00
2018-06-29T20:37:02.823Z,22.20
2018-06-29T20:39:30.361Z,22.10
2018-06-29T20:41:57.942Z,21.90
2018-06-29T20:44:25.526Z,21.60
2018-06-29T20:46:53.025Z,21.90
2018-06-29T20:49:20.602Z,21.50
2018-06-29T20:51:48.130Z,21.40
2018-06-29T20:54:15.735Z,21.30
2018-06-29T20:56:43.252Z,21.30
2018-06-29T20:59:10.874Z,21.50
2018-06-29T21:01:38.387Z,21.20
2018-06-29T21:06:33.909Z,20.90
2018-06-29T21:09:01.409Z,20.60
2018-06-29T21:11:29.056Z,20.50
2018-06-29T21:13:56.562Z,20.50
2018-06-29T21:16:24.143Z,20.50
2018-06-29T21:21:19.309Z,20.50
2018-06-29T21:23:46.836Z,20.70
2018-06-29T21:26:14.421Z,20.50
2018-06-29T21:28:41.975Z,20.50
2018-06-29T21:31:09.525Z,20.10
2018-06-29T21:33:37.108Z,20.40
2018-06-29T21:36:04.647Z,20.60
2018-06-29T21:38:32.165Z,20.50
2018-06-29T21:45:54.920Z,20.40
2018-06-29T21:48:22.408Z,20.20
2018-06-29T21:53:17.443Z,19.80
2018-06-29T21:55:44.994Z,19.80
2018-06-29T21:58:12.675Z,19.90
2018-06-29T22:03:10.051Z,19.70
2018-06-29T22:05:38.341Z,19.60
2018-06-29T22:08:06.710Z,19.60
2018-06-29T22:10:34.277Z,19.50
2018-06-29T22:13:01.798Z,19.50
2018-06-29T22:17:56.884Z,19.30
2018-06-29T22:20:24.726Z,19.40
2018-06-29T22:22:52.338Z,19.60
2018-06-29T22:30:16.411Z,19.30
2018-06-29T22:32:43.940Z,19.30
2018-06-29T22:35:11.444Z,19.20
2018-06-29T22:37:39.354Z,19.30
2018-06-29T22:40:07.545Z,19.10
2018-06-29T22:42:35.085Z,18.80
2018-06-29T22:45:02.633Z,18.80
2018-06-29T22:47:30.271Z,18.70
2018-06-29T22:49:57.960Z,18.60
2018-06-29T22:52:25.802Z,18.80
2018-06-29T22:54:53.297Z,18.70
2018-06-29T22:57:20.826Z,18.60
2018-06-29T23:02:16.275Z,19.10
2018-06-29T23:04:43.845Z,18.80
2018-06-29T23:09:38.997Z,18.50
2018-06-29T23:12:06.625Z,18.30
2018-06-29T23:14:34.275Z,18.60
2018-06-29T23:17:02.072Z,18.40
2018-06-29T23:21:57.334Z,18.30
2018-06-29T23:24:25.218Z,18.20
2018-06-29T23:26:53.093Z,18.20
2018-06-29T23:29:20.865Z,18.00
2018-06-29T23:31:48.476Z,18.50
2018-06-29T23:34:16.022Z,18.70
2018-06-29T23:36:43.638Z,18.60
2018-06-29T23:39:11.883Z,18.20
2018-06-29T23:41:39.610Z,18.20
2018-06-29T23:46:35.337Z,18.40
2018-06-29T23:49:02.982Z,18.30
2018-06-29T23:51:30.549Z,18.20
2018-06-29T23:56:25.892Z,18.20
